Time,TemperatureF,DewpointF,PressureIn,WindDirection,WindDirectionDegrees,WindSpeedMPH,WindSpeedGustMPH,Humidity,HourlyPrecipIn,Conditions,Clouds,dailyrainin,SoftwareType,DateUTC
2013-08-18 00:01:00,76.1,59.3,29.98,NE,53,0.0,0.0,56,0.00,CLR,,0.00,WeatherDisplay:10.37,2013-08-18 05:01:00,
2013-08-18 00:06:00,75.9,59.6,29.98,NE,53,0.0,0.0,57,0.00,CLR,,0.00,WeatherDisplay:10.37,2013-08-18 05:06:00,
2013-08-18 00:11:00,75.5,59.2,29.98,NE,54,0.0,0.0,57,0.00,CLR,,0.00,WeatherDisplay:10.37,2013-08-18 05:11:00,
2013-08-18 00:16:00,75.0,59.2,29.98,NE,53,0.0,0.0,58,0.00,CLR,,0.00,WeatherDisplay:10.37,2013-08-18 05:16:00,
2013-08-18 00:21:00,74.6,58.8,29.98,NE,54,0.0,0.0,58,0.00,CLR,,0.00,WeatherDisplay:10.37,2013-08-18 05:21:00,
2013-08-18 00:26:00,74.5,59.2,29.98,NE,54,0.0,0.0,59,0.00,CLR,,0.00,WeatherDisplay:10.37,2013-08-18 05:26:00,
2013-08-18 00:31:00,74.7,59.4,29.98,NE,54,0.0,0.0,59,0.00,CLR,,0.00,WeatherDisplay:10.37,2013-08-18 05:31:00,
2013-08-18 00:36:00,76.0,59.7,29.99,East,86,2.3,0.0,57,0.00,CLR,,0.00,WeatherDisplay:10.37,2013-08-18 05:36:00,
2013-08-18 00:41:00,76.1,59.8,29.99,East,92,1.2,1.2,57,0.00,CLR,,0.00,WeatherDisplay:10.37,2013-08-18 05:41:00,
2013-08-18 00:46:00,75.8,60.0,29.99,East,92,0.0,0.0,58,0.00,CLR,,0.00,WeatherDisplay:10.37,2013-08-18 05:46:00,
2013-08-18 00:51:00,75.3,59.5,29.99,East,92,0.0,0.0,58,0.00,CLR,,0.00,WeatherDisplay:10.37,2013-08-18 05:51:00,
2013-08-18 00:56:00,74.8,59.5,29.99,East,92,0.0,0.0,59,0.00,CLR,,0.00,WeatherDisplay:10.37,2013-08-18 05:56:00,
2013-08-18 01:01:00,74.4,59.6,29.99,East,92,0.0,0.0,60,0.00,CLR,,0.00,WeatherDisplay:10.37,2013-08-18 06:01:00,
2013-08-18 01:06:00,73.9,60.1,29.99,East,92,0.0,0.0,62,0.00,CLR,,0.00,WeatherDisplay:10.37,2013-08-18 06:06:00,
2013-08-18 01:11:00,73.6,59.8,29.99,East,92,0.0,0.0,62,0.00,CLR,,0.00,WeatherDisplay:10.37,2013-08-18 06:11:00,
2013-08-18 01:16:00,73.2,59.4,29.99,East,92,0.0,0.0,62,0.00,CLR,,0.00,WeatherDisplay:10.37,2013-08-18 06:16:00,
2013-08-18 01:21:00,72.7,59.4,29.98,East,92,0.0,0.0,63,0.00,CLR,,0.00,WeatherDisplay:10.37,2013-08-18 06:21:00,
2013-08-18 01:26:00,72.3,59.4,29.99,East,92,0.0,0.0,64,0.00,CLR,,0.00,WeatherDisplay:10.37,2013-08-18 06:26:00,
2013-08-18 01:31:00,71.9,59.1,29.99,East,92,0.0,0.0,64,0.00,CLR,,0.00,WeatherDisplay:10.37,2013-08-18 06:31:00,
2013-08-18 01:36:00,71.9,59.1,29.99,East,91,0.0,0.0,64,0.00,CLR,,0.00,WeatherDisplay:10.37,2013-08-18 06:36:00,
2013-08-18 01:41:00,72.2,59.3,29.99,East,92,0.0,0.0,64,0.00,CLR,,0.00,WeatherDisplay:10.37,2013-08-18 06:41:00,
2013-08-18 01:46:00,72.5,59.6,29.99,East,92,0.0,0.0,64,0.00,CLR,,0.00,WeatherDisplay:10.37,2013-08-18 06:46:00,
2013-08-18 01:51:00,72.3,59.0,29.98,East,92,0.0,0.0,63,0.00,CLR,,0.00,WeatherDisplay:10.37,2013-08-18 06:51:00,
2013-08-18 01:56:00,72.1,59.2,29.99,East,92,0.0,0.0,64,0.00,CLR,,0.00,WeatherDisplay:10.37,2013-08-18 06:56:00,
2013-08-18 02:01:00,72.2,59.3,29.98,East,91,0.0,0.0,64,0.00,CLR,,0.00,WeatherDisplay:10.37,2013-08-18 07:01:00,
2013-08-18 02:06:00,72.0,59.2,29.98,East,92,0.0,0.0,64,0.00,CLR,,0.00,WeatherDisplay:10.37,2013-08-18 07:06:00,
2013-08-18 02:11:00,71.9,59.1,29.98,East,91,0.0,0.0,64,0.00,CLR,,0.00,WeatherDisplay:10.37,2013-08-18 07:11:00,
2013-08-18 02:16:00,71.7,59.3,29.98,East,91,0.0,0.0,65,0.00,CLR,,0.00,WeatherDisplay:10.37,2013-08-18 07:16:00,
2013-08-18 02:21:00,71.6,59.2,29.98,East,92,0.0,0.0,65,0.00,CLR,,0.00,WeatherDisplay:10.37,2013-08-18 07:21:00,
2013-08-18 02:26:00,71.6,59.2,29.98,East,91,0.0,0.0,65,0.00,CLR,,0.00,WeatherDisplay:10.37,2013-08-18 07:26:00,
2013-08-18 02:31:00,71.6,59.6,29.98,East,92,0.0,0.0,66,0.00,CLR,,0.00,WeatherDisplay:10.37,2013-08-18 07:31:00,
2013-08-18 02:36:00,71.7,59.7,29.98,East,92,0.0,0.0,66,0.00,CLR,,0.00,WeatherDisplay:10.37,2013-08-18 07:36:00,
2013-08-18 02:41:00,72.0,59.6,29.98,East,91,0.0,0.0,65,0.00,CLR,,0.00,WeatherDisplay:10.37,2013-08-18 07:41:00,
2013-08-18 02:46:00,71.8,59.4,29.98,East,92,0.0,0.0,65,0.00,CLR,,0.00,WeatherDisplay:10.37,2013-08-18 07:46:00,
2013-08-18 02:51:00,71.8,59.8,29.98,East,92,0.0,0.0,66,0.00,CLR,,0.00,WeatherDisplay:10.37,2013-08-18 07:51:00,
2013-08-18 02:56:00,72.0,60.0,29.98,East,92,0.0,0.0,66,0.00,CLR,,0.00,WeatherDisplay:10.37,2013-08-18 07:56:00,
2013-08-18 03:01:00,72.0,59.6,29.98,East,91,0.0,0.0,65,0.00,CLR,,0.00,WeatherDisplay:10.37,2013-08-18 08:01:00,
2013-08-18 03:06:00,71.8,59.8,29.98,East,92,0.0,0.0,66,0.00,CLR,,0.00,WeatherDisplay:10.37,2013-08-18 08:06:00,
2013-08-18 03:11:00,71.9,59.9,29.98,East,92,0.0,0.0,66,0.00,CLR,,0.00,WeatherDisplay:10.37,2013-08-18 08:11:00,
2013-08-18 03:16:00,71.9,59.9,29.97,East,92,0.0,0.0,66,0.00,CLR,,0.00,WeatherDisplay:10.37,2013-08-18 08:16:00,
2013-08-18 03:21:00,71.7,59.7,29.98,East,92,0.0,0.0,66,0.00,CLR,,0.00,WeatherDisplay:10.37,2013-08-18 08:21:00,
2013-08-18 03:26:00,71.5,60.0,29.98,East,92,0.0,0.0,67,0.00,CLR,,0.00,WeatherDisplay:10.37,2013-08-18 08:26:00,
2013-08-18 03:31:00,71.3,59.8,29.97,East,92,0.0,0.0,67,0.00,CLR,,0.00,WeatherDisplay:10.37,2013-08-18 08:31:00,
2013-08-18 03:36:00,71.1,59.6,29.97,East,91,0.0,0.0,67,0.00,CLR,,0.00,WeatherDisplay:10.37,2013-08-18 08:36:00,
2013-08-18 03:41:00,70.9,59.8,29.97,East,92,0.0,0.0,68,0.00,CLR,,0.00,WeatherDisplay:10.37,2013-08-18 08:41:00,
2013-08-18 03:46:00,70.8,59.7,29.97,East,92,0.0,0.0,68,0.00,CLR,,0.00,WeatherDisplay:10.37,2013-08-18 08:46:00,
2013-08-18 03:51:00,70.8,59.7,29.97,East,91,0.0,0.0,68,0.00,CLR,,0.00,WeatherDisplay:10.37,2013-08-18 08:51:00,
2013-08-18 03:56:00,70.8,59.7,29.97,East,91,0.0,0.0,68,0.00,CLR,,0.00,WeatherDisplay:10.37,2013-08-18 08:56:00,
2013-08-18 04:01:00,70.6,59.5,29.97,East,92,0.0,0.0,68,0.00,CLR,,0.00,WeatherDisplay:10.37,2013-08-18 09:01:00,
2013-08-18 04:06:00,70.3,59.6,29.97,East,92,0.0,0.0,69,0.00,CLR,,0.00,WeatherDisplay:10.37,2013-08-18 09:06:00,
2013-08-18 04:11:00,70.1,59.5,29.97,East,92,0.0,0.0,69,0.00,CLR,,0.00,WeatherDisplay:10.37,2013-08-18 09:11:00,
2013-08-18 04:16:00,69.9,59.3,29.97,East,91,0.0,0.0,69,0.00,CLR,,0.00,WeatherDisplay:10.37,2013-08-18 09:16:00,
2013-08-18 04:21:00,69.6,59.4,29.97,East,92,0.0,0.0,70,0.00,CLR,,0.00,WeatherDisplay:10.37,2013-08-18 09:21:00,
2013-08-18 04:26:00,69.7,59.5,29.97,East,92,0.0,0.0,70,0.00,CLR,,0.00,WeatherDisplay:10.37,2013-08-18 09:26:00,
2013-08-18 04:31:00,70.1,59.9,29.97,East,91,0.0,0.0,70,0.00,CLR,,0.00,WeatherDisplay:10.37,2013-08-18 09:31:00,
2013-08-18 04:36:00,70.1,59.9,29.97,East,92,0.0,0.0,70,0.00,CLR,,0.00,WeatherDisplay:10.37,2013-08-18 09:36:00,
2013-08-18 04:41:00,70.0,59.8,29.97,East,92,0.0,0.0,70,0.00,CLR,,0.00,WeatherDisplay:10.37,2013-08-18 09:41:00,
2013-08-18 04:46:00,70.2,60.0,29.97,East,92,0.0,0.0,70,0.00,CLR,,0.00,WeatherDisplay:10.37,2013-08-18 09:46:00,
2013-08-18 04:51:00,70.5,60.2,29.97,East,92,0.0,0.0,70,0.00,CLR,,0.00,WeatherDisplay:10.37,2013-08-18 09:51:00,
2013-08-18 04:56:00,70.3,60.1,29.97,East,91,0.0,0.0,70,0.00,CLR,,0.00,WeatherDisplay:10.37,2013-08-18 09:56:00,
2013-08-18 05:01:00,70.1,59.9,29.97,East,92,0.0,0.0,70,0.00,CLR,,0.00,WeatherDisplay:10.37,2013-08-18 10:01:00,
2013-08-18 05:06:00,69.7,59.9,29.97,East,92,0.0,0.0,71,0.00,CLR,,0.00,WeatherDisplay:10.37,2013-08-18 10:06:00,
2013-08-18 05:11:00,69.7,59.9,29.97,East,91,0.0,0.0,71,0.00,CLR,,0.00,WeatherDisplay:10.37,2013-08-18 10:11:00,
2013-08-18 05:16:00,69.8,60.0,29.97,East,92,0.0,0.0,71,0.00,CLR,,0.00,WeatherDisplay:10.37,2013-08-18 10:16:00,
2013-08-18 05:21:00,69.7,59.9,29.97,East,92,0.0,0.0,71,0.00,CLR,,0.00,WeatherDisplay:10.37,2013-08-18 10:21:00,
2013-08-18 05:26:00,69.7,59.9,29.97,East,92,0.0,0.0,71,0.00,CLR,,0.00,WeatherDisplay:10.37,2013-08-18 10:26:00,
2013-08-18 05:31:00,69.8,60.0,29.98,East,92,0.0,0.0,71,0.00,CLR,,0.00,WeatherDisplay:10.37,2013-08-18 10:31:00,
2013-08-18 05:36:00,69.8,60.0,29.98,East,86,0.0,0.0,71,0.00,CLR,,0.00,WeatherDisplay:10.37,2013-08-18 10:36:00,
2013-08-18 05:41:00,70.1,59.9,29.98,East,86,0.0,0.0,70,0.00,CLR,,0.00,WeatherDisplay:10.37,2013-08-18 10:41:00,
2013-08-18 05:46:00,70.1,60.3,29.98,East,86,0.0,0.0,71,0.00,CLR,,0.00,WeatherDisplay:10.37,2013-08-18 10:46:00,
2013-08-18 05:51:00,69.9,60.1,29.98,East,86,0.0,0.0,71,0.00,CLR,,0.00,WeatherDisplay:10.37,2013-08-18 10:51:00,
2013-08-18 05:56:00,69.9,60.1,29.98,East,86,0.0,0.0,71,0.00,CLR,,0.00,WeatherDisplay:10.37,2013-08-18 10:56:00,
2013-08-18 06:01:00,69.7,59.9,29.98,East,86,0.0,0.0,71,0.00,CLR,,0.00,WeatherDisplay:10.37,2013-08-18 11:01:00,
2013-08-18 06:06:00,69.5,60.1,29.98,East,86,0.0,0.0,72,0.00,CLR,,0.00,WeatherDisplay:10.37,2013-08-18 11:06:00,
2013-08-18 06:11:00,69.4,60.0,29.98,East,86,0.0,0.0,72,0.00,CLR,,0.00,WeatherDisplay:10.37,2013-08-18 11:11:00,
2013-08-18 06:16:00,69.4,60.0,29.98,East,86,0.0,0.0,72,0.00,CLR,,0.00,WeatherDisplay:10.37,2013-08-18 11:16:00,
2013-08-18 06:21:00,69.2,60.2,29.98,East,86,0.0,0.0,73,0.00,CLR,,0.00,WeatherDisplay:10.37,2013-08-18 11:21:00,
2013-08-18 06:26:00,69.3,60.3,29.98,East,86,0.0,0.0,73,0.00,CLR,,0.00,WeatherDisplay:10.37,2013-08-18 11:26:00,
2013-08-18 06:31:00,69.2,60.2,29.98,East,86,0.0,0.0,73,0.00,CLR,,0.00,WeatherDisplay:10.37,2013-08-18 11:31:00,
2013-08-18 06:36:00,68.8,59.8,29.98,East,86,0.0,0.0,73,0.00,CLR,,0.00,WeatherDisplay:10.37,2013-08-18 11:36:00,
2013-08-18 06:41:00,68.6,59.6,29.99,East,86,0.0,0.0,73,0.00,CLR,,0.00,WeatherDisplay:10.37,2013-08-18 11:41:00,
2013-08-18 06:46:00,68.6,60.0,29.99,East,86,0.0,0.0,74,0.00,CLR,,0.00,WeatherDisplay:10.37,2013-08-18 11:46:00,
2013-08-18 06:51:00,68.7,60.1,29.99,East,86,0.0,0.0,74,0.00,CLR,,0.00,WeatherDisplay:10.37,2013-08-18 11:51:00,
2013-08-18 06:56:00,68.6,60.0,29.99,East,86,0.0,0.0,74,0.00,CLR,,0.00,WeatherDisplay:10.37,2013-08-18 11:56:00,
2013-08-18 07:01:00,68.7,60.1,29.99,East,86,0.0,0.0,74,0.00,CLR,,0.00,WeatherDisplay:10.37,2013-08-18 12:01:00,
2013-08-18 07:06:00,68.5,59.9,29.99,East,86,0.0,0.0,74,0.00,CLR,,0.00,WeatherDisplay:10.37,2013-08-18 12:06:00,
2013-08-18 07:11:00,68.2,59.6,30.00,East,86,0.0,0.0,74,0.00,CLR,,0.00,WeatherDisplay:10.37,2013-08-18 12:11:00,
2013-08-18 07:16:00,68.1,59.9,30.00,East,86,0.0,0.0,75,0.00,CLR,,0.00,WeatherDisplay:10.37,2013-08-18 12:16:00,
2013-08-18 07:21:00,68.1,59.9,30.00,East,86,0.0,0.0,75,0.00,CLR,,0.00,WeatherDisplay:10.37,2013-08-18 12:21:00,
2013-08-18 07:26:00,68.3,60.1,30.00,East,86,0.0,0.0,75,0.00,CLR,,0.00,WeatherDisplay:10.37,2013-08-18 12:26:00,
2013-08-18 07:31:00,68.6,60.0,30.00,East,86,0.0,0.0,74,0.00,CLR,,0.00,WeatherDisplay:10.37,2013-08-18 12:31:00,
2013-08-18 07:36:00,69.0,60.7,30.00,East,86,0.0,0.0,75,0.00,CLR,,0.00,WeatherDisplay:10.37,2013-08-18 12:36:00,
2013-08-18 07:41:00,69.4,61.1,30.00,East,86,0.0,0.0,75,0.00,CLR,,0.00,WeatherDisplay:10.37,2013-08-18 12:41:00,
2013-08-18 07:46:00,69.6,61.3,30.01,East,86,0.0,0.0,75,0.00,CLR,,0.00,WeatherDisplay:10.37,2013-08-18 12:46:00,
2013-08-18 07:51:00,69.8,61.5,30.00,East,86,0.0,0.0,75,0.00,CLR,,0.00,WeatherDisplay:10.37,2013-08-18 12:51:00,
2013-08-18 07:56:00,70.1,61.4,30.00,East,86,0.0,0.0,74,0.00,CLR,,0.00,WeatherDisplay:10.37,2013-08-18 12:56:00,
2013-08-18 08:01:00,70.6,61.5,30.01,East,86,0.0,0.0,73,0.00,CLR,,0.00,WeatherDisplay:10.37,2013-08-18 13:01:00,
2013-08-18 08:06:00,71.3,62.2,30.01,East,86,0.0,0.0,73,0.00,CLR,,0.00,WeatherDisplay:10.37,2013-08-18 13:06:00,
2013-08-18 08:11:00,72.2,62.7,30.01,East,86,0.0,0.0,72,0.00,CLR,,0.00,WeatherDisplay:10.37,2013-08-18 13:11:00,
2013-08-18 08:16:00,73.7,63.3,30.01,East,86,0.0,0.0,70,0.00,CLR,,0.00,WeatherDisplay:10.37,2013-08-18 13:16:00,
2013-08-18 08:21:00,74.9,63.6,30.01,East,85,0.0,0.0,68,0.00,CLR,,0.00,WeatherDisplay:10.37,2013-08-18 13:21:00,
2013-08-18 08:26:00,75.9,63.7,30.01,East,85,0.0,0.0,66,0.00,CLR,,0.00,WeatherDisplay:10.37,2013-08-18 13:26:00,
2013-08-18 08:31:00,76.6,64.0,30.02,East,84,0.0,0.0,65,0.00,CLR,,0.00,WeatherDisplay:10.37,2013-08-18 13:31:00,
2013-08-18 08:36:00,77.3,64.2,30.02,East,85,0.0,0.0,64,0.00,CLR,,0.00,WeatherDisplay:10.37,2013-08-18 13:36:00,
2013-08-18 08:41:00,77.4,64.3,30.02,East,85,0.0,0.0,64,0.00,CLR,,0.00,WeatherDisplay:10.37,2013-08-18 13:41:00,
2013-08-18 08:46:00,78.1,64.5,30.02,ENE,61,0.0,0.0,63,0.00,CLR,,0.00,WeatherDisplay:10.37,2013-08-18 13:46:00,
2013-08-18 08:51:00,78.4,64.3,30.02,WNW,298,2.3,2.3,62,0.00,CLR,,0.00,WeatherDisplay:10.37,2013-08-18 13:51:00,
2013-08-18 08:56:00,78.4,65.7,30.02,WNW,286,0.0,0.0,65,0.00,CLR,,0.00,WeatherDisplay:10.37,2013-08-18 13:56:00,
2013-08-18 09:01:00,79.1,65.9,30.02,WNW,288,0.0,0.0,64,0.00,CLR,,0.00,WeatherDisplay:10.37,2013-08-18 14:01:00,
2013-08-18 09:06:00,79.7,65.5,30.03,ENE,61,0.0,0.0,62,0.00,CLR,,0.00,WeatherDisplay:10.37,2013-08-18 14:06:00,
2013-08-18 09:11:00,80.0,66.3,30.03,East,90,0.0,0.0,63,0.00,CLR,,0.00,WeatherDisplay:10.37,2013-08-18 14:11:00,
2013-08-18 09:16:00,80.3,66.6,30.03,WNW,286,0.0,0.0,63,0.00,CLR,,0.00,WeatherDisplay:10.37,2013-08-18 14:16:00,
2013-08-18 09:21:00,80.2,66.9,30.03,WNW,284,0.0,0.0,64,0.00,CLR,,0.00,WeatherDisplay:10.37,2013-08-18 14:21:00,
2013-08-18 09:26:00,80.6,66.8,30.03,WSW,239,1.2,1.2,63,0.00,CLR,,0.00,WeatherDisplay:10.37,2013-08-18 14:26:00,
2013-08-18 09:31:00,80.6,66.8,30.03,SW,227,0.0,0.0,63,0.00,CLR,,0.00,WeatherDisplay:10.37,2013-08-18 14:31:00,
2013-08-18 09:36:00,81.5,67.2,30.03,WSW,248,1.2,1.2,62,0.00,CLR,,0.00,WeatherDisplay:10.37,2013-08-18 14:36:00,
2013-08-18 09:41:00,81.4,68.1,30.03,West,271,1.2,1.2,64,0.00,CLR,,0.00,WeatherDisplay:10.37,2013-08-18 14:41:00,
2013-08-18 09:46:00,82.0,68.6,30.03,ESE,123,1.2,1.2,64,0.00,CLR,,0.00,WeatherDisplay:10.37,2013-08-18 14:46:00,
2013-08-18 09:51:00,82.8,68.4,30.03,ESE,122,2.3,2.3,62,0.00,CLR,,0.00,WeatherDisplay:10.37,2013-08-18 14:51:00,
2013-08-18 09:56:00,82.8,68.0,30.03,SSE,152,2.3,2.3,61,0.00,CLR,,0.00,WeatherDisplay:10.37,2013-08-18 14:56:00,
2013-08-18 10:01:00,82.8,68.0,30.03,WSW,240,1.2,1.2,61,0.00,CLR,,0.00,WeatherDisplay:10.37,2013-08-18 15:01:00,
2013-08-18 10:06:00,83.3,68.9,30.03,WSW,254,2.3,2.3,62,0.00,CLR,,0.00,WeatherDisplay:10.37,2013-08-18 15:06:00,
2013-08-18 10:11:00,83.4,68.5,30.03,West,275,2.3,2.3,61,0.00,CLR,,0.00,WeatherDisplay:10.37,2013-08-18 15:11:00,
2013-08-18 10:16:00,83.8,68.9,30.03,West,269,3.5,3.5,61,0.00,CLR,,0.00,WeatherDisplay:10.37,2013-08-18 15:16:00,
2013-08-18 10:21:00,84.0,68.6,30.03,West,271,3.5,3.5,60,0.00,CLR,,0.00,WeatherDisplay:10.37,2013-08-18 15:21:00,
2013-08-18 10:26:00,84.1,69.2,30.03,West,264,3.5,3.5,61,0.00,CLR,,0.00,WeatherDisplay:10.37,2013-08-18 15:26:00,
2013-08-18 10:31:00,84.1,68.7,30.03,WSW,253,4.6,4.6,60,0.00,CLR,,0.00,WeatherDisplay:10.37,2013-08-18 15:31:00,
2013-08-18 10:36:00,84.4,69.0,30.03,NW,324,3.5,3.5,60,0.00,CLR,,0.00,WeatherDisplay:10.37,2013-08-18 15:36:00,
2013-08-18 10:41:00,84.7,69.3,30.04,West,267,4.6,4.6,60,0.00,CLR,,0.00,WeatherDisplay:10.37,2013-08-18 15:41:00,
2013-08-18 10:46:00,84.8,68.9,30.03,West,268,5.8,5.8,59,0.00,CLR,,0.00,WeatherDisplay:10.37,2013-08-18 15:46:00,
2013-08-18 10:51:00,85.2,68.8,30.04,WSW,255,3.5,3.5,58,0.00,CLR,,0.00,WeatherDisplay:10.37,2013-08-18 15:51:00,
2013-08-18 10:56:00,85.3,68.8,30.04,SSW,211,4.6,4.6,58,0.00,CLR,,0.00,WeatherDisplay:10.37,2013-08-18 15:56:00,
2013-08-18 11:01:00,85.6,69.1,30.04,WSW,238,3.0,3.0,58,0.00,CLR,,0.00,WeatherDisplay:10.37,2013-08-18 16:01:00,
2013-08-18 11:06:00,85.8,68.8,30.04,SSE,148,2.3,2.3,57,0.00,CLR,,0.00,WeatherDisplay:10.37,2013-08-18 16:06:00,
2013-08-18 11:11:00,86.7,68.6,30.03,SW,218,3.5,3.5,55,0.00,CLR,,0.00,WeatherDisplay:10.37,2013-08-18 16:11:00,
2013-08-18 11:16:00,86.8,69.2,30.04,SW,215,2.0,2.0,56,0.00,CLR,,0.00,WeatherDisplay:10.37,2013-08-18 16:16:00,
2013-08-18 11:21:00,87.2,68.5,30.03,West,276,3.5,3.5,54,0.00,CLR,,0.00,WeatherDisplay:10.37,2013-08-18 16:21:00,
2013-08-18 11:26:00,87.3,69.2,30.03,NW,307,3.5,3.5,55,0.00,CLR,,0.00,WeatherDisplay:10.37,2013-08-18 16:26:00,
2013-08-18 11:31:00,88.2,69.5,30.03,East,98,0.0,0.0,54,0.00,CLR,,0.00,WeatherDisplay:10.37,2013-08-18 16:31:00,
2013-08-18 11:36:00,88.7,68.8,30.03,South,173,3.5,3.5,52,0.00,CLR,,0.00,WeatherDisplay:10.37,2013-08-18 16:36:00,
2013-08-18 11:41:00,88.7,68.8,30.03,SSE,152,3.5,3.5,52,0.00,CLR,,0.00,WeatherDisplay:10.37,2013-08-18 16:41:00,
2013-08-18 11:46:00,88.5,68.6,30.03,WNW,301,5.8,5.8,52,0.00,CLR,,0.00,WeatherDisplay:10.37,2013-08-18 16:46:00,
2013-08-18 11:51:00,88.7,69.4,30.03,SE,136,1.2,1.2,53,0.00,CLR,,0.00,WeatherDisplay:10.37,2013-08-18 16:51:00,
2013-08-18 11:56:00,89.1,69.2,30.03,SE,134,5.0,5.0,52,0.00,CLR,,0.00,WeatherDisplay:10.37,2013-08-18 16:56:00,
2013-08-18 12:01:00,90.0,68.9,30.03,SSE,167,0.0,0.0,50,0.00,CLR,,0.00,WeatherDisplay:10.37,2013-08-18 17:01:00,
2013-08-18 12:06:00,91.2,70.5,30.03,WNW,290,3.5,3.5,51,0.00,CLR,,0.00,WeatherDisplay:10.37,2013-08-18 17:06:00,
2013-08-18 12:11:00,90.6,69.4,30.03,West,259,3.5,3.5,50,0.00,CLR,,0.00,WeatherDisplay:10.37,2013-08-18 17:11:00,
2013-08-18 12:16:00,90.0,68.9,30.03,WSW,241,3.5,3.5,50,0.00,CLR,,0.00,WeatherDisplay:10.37,2013-08-18 17:16:00,
2013-08-18 12:21:00,90.0,68.3,30.02,SW,223,3.5,3.5,49,0.00,CLR,,0.00,WeatherDisplay:10.37,2013-08-18 17:21:00,
2013-08-18 12:26:00,90.2,69.0,30.02,East,80,6.0,6.0,50,0.00,CLR,,0.00,WeatherDisplay:10.37,2013-08-18 17:26:00,
2013-08-18 12:31:00,90.8,67.8,30.02,SSE,155,4.6,4.6,47,0.00,CLR,,0.00,WeatherDisplay:10.37,2013-08-18 17:31:00,
2013-08-18 12:36:00,91.2,67.5,30.02,WSW,253,5.8,5.8,46,0.00,CLR,,0.00,WeatherDisplay:10.37,2013-08-18 17:36:00,
2013-08-18 12:41:00,90.5,66.9,30.02,SW,227,5.8,5.8,46,0.00,CLR,,0.00,WeatherDisplay:10.37,2013-08-18 17:41:00,
2013-08-18 12:46:00,89.5,66.6,30.02,West,259,3.5,3.5,47,0.00,CLR,,0.00,WeatherDisplay:10.37,2013-08-18 17:46:00,
2013-08-18 12:51:00,89.2,67.5,30.02,SSW,205,3.0,3.0,49,0.00,CLR,,0.00,WeatherDisplay:10.37,2013-08-18 17:51:00,
2013-08-18 12:56:00,89.9,67.6,30.02,WSW,249,3.5,3.5,48,0.00,CLR,,0.00,WeatherDisplay:10.37,2013-08-18 17:56:00,
2013-08-18 13:01:00,90.8,67.2,30.01,ESE,123,4.6,4.6,46,0.00,CLR,,0.00,WeatherDisplay:10.37,2013-08-18 18:01:00,
2013-08-18 13:06:00,90.6,67.0,30.02,ENE,65,4.6,4.6,46,0.00,CLR,,0.00,WeatherDisplay:10.37,2013-08-18 18:06:00,
2013-08-18 13:11:00,90.7,67.1,30.01,SE,134,4.0,4.0,46,0.00,CLR,,0.00,WeatherDisplay:10.37,2013-08-18 18:11:00,
2013-08-18 13:16:00,91.1,66.2,30.01,SSW,209,9.2,9.2,44,0.00,CLR,,0.00,WeatherDisplay:10.37,2013-08-18 18:16:00,
2013-08-18 13:21:00,91.2,67.5,30.01,SE,136,4.6,4.6,46,0.00,CLR,,0.00,WeatherDisplay:10.37,2013-08-18 18:21:00,
2013-08-18 13:26:00,92.0,66.3,30.01,ESE,115,4.6,4.6,43,0.00,CLR,,0.00,WeatherDisplay:10.37,2013-08-18 18:26:00,
2013-08-18 13:31:00,92.6,66.2,30.01,SE,141,8.1,8.1,42,0.00,CLR,,0.00,WeatherDisplay:10.37,2013-08-18 18:31:00,
2013-08-18 13:36:00,92.5,66.1,30.01,SSW,203,4.6,4.6,42,0.00,CLR,,0.00,WeatherDisplay:10.37,2013-08-18 18:36:00,
2013-08-18 13:41:00,92.1,65.7,30.01,SSW,198,3.5,3.5,42,0.00,CLR,,0.00,WeatherDisplay:10.37,2013-08-18 18:41:00,
2013-08-18 13:46:00,91.5,65.2,30.01,NE,40,2.3,2.3,42,0.00,CLR,,0.00,WeatherDisplay:10.37,2013-08-18 18:46:00,
2013-08-18 13:51:00,91.5,65.8,30.01,ENE,67,1.2,1.2,43,0.00,CLR,,0.00,WeatherDisplay:10.37,2013-08-18 18:51:00,
2013-08-18 13:56:00,91.8,66.8,30.01,NW,307,1.2,1.2,44,0.00,CLR,,0.00,WeatherDisplay:10.37,2013-08-18 18:56:00,
2013-08-18 14:01:00,92.3,65.9,30.00,ESE,115,3.5,3.5,42,0.00,CLR,,0.00,WeatherDisplay:10.37,2013-08-18 19:01:00,
2013-08-18 14:06:00,92.7,65.6,30.00,SW,227,2.3,2.3,41,0.00,CLR,,0.00,WeatherDisplay:10.37,2013-08-18 19:06:00,
2013-08-18 14:11:00,93.8,65.8,30.00,NNW,331,2.3,2.3,40,0.00,CLR,,0.00,WeatherDisplay:10.37,2013-08-18 19:11:00,
2013-08-18 14:16:00,94.9,66.1,30.00,NE,36,1.2,1.2,39,0.00,CLR,,0.00,WeatherDisplay:10.37,2013-08-18 19:16:00,
2013-08-18 14:21:00,95.6,66.7,30.00,NW,306,3.5,3.5,39,0.00,CLR,,0.00,WeatherDisplay:10.37,2013-08-18 19:21:00,
2013-08-18 14:26:00,94.9,65.3,30.00,WNW,283,3.5,3.5,38,0.00,CLR,,0.00,WeatherDisplay:10.37,2013-08-18 19:26:00,
2013-08-18 14:31:00,94.9,65.3,30.00,NNW,339,0.0,0.0,38,0.00,CLR,,0.00,WeatherDisplay:10.37,2013-08-18 19:31:00,
2013-08-18 14:36:00,94.4,66.4,30.00,ENE,62,2.3,2.3,40,0.00,CLR,,0.00,WeatherDisplay:10.37,2013-08-18 19:36:00,
2013-08-18 14:41:00,94.4,66.4,29.99,East,93,2.3,2.3,40,0.00,CLR,,0.00,WeatherDisplay:10.37,2013-08-18 19:41:00,
2013-08-18 14:46:00,94.4,66.4,29.99,ESE,106,3.5,3.5,40,0.00,CLR,,0.00,WeatherDisplay:10.37,2013-08-18 19:46:00,
2013-08-18 14:51:00,94.3,64.8,29.99,East,86,6.9,6.9,38,0.00,CLR,,0.00,WeatherDisplay:10.37,2013-08-18 19:51:00,
2013-08-18 14:56:00,94.6,65.1,29.99,ESE,103,6.9,6.9,38,0.00,CLR,,0.00,WeatherDisplay:10.37,2013-08-18 19:56:00,
2013-08-18 15:01:00,94.4,64.9,29.99,SW,217,2.3,2.3,38,0.00,CLR,,0.00,WeatherDisplay:10.37,2013-08-18 20:01:00,
2013-08-18 15:06:00,95.0,62.2,29.98,ENE,60,2.3,2.3,34,0.00,CLR,,0.00,WeatherDisplay:10.37,2013-08-18 20:06:00,
2013-08-18 15:11:00,95.4,63.4,29.98,ENE,73,8.1,8.1,35,0.00,CLR,,0.00,WeatherDisplay:10.37,2013-08-18 20:11:00,
2013-08-18 15:16:00,95.7,63.7,29.98,NE,42,3.5,3.5,35,0.00,CLR,,0.00,WeatherDisplay:10.37,2013-08-18 20:16:00,
2013-08-18 15:22:00,95.4,63.4,29.98,East,93,8.1,8.1,35,0.00,CLR,,0.00,WeatherDisplay:10.37,2013-08-18 20:22:00,
2013-08-18 15:27:00,95.7,63.7,29.98,ENE,70,3.5,3.5,35,0.00,CLR,,0.00,WeatherDisplay:10.37,2013-08-18 20:27:00,
2013-08-18 15:32:00,96.6,65.3,29.98,SE,132,1.2,1.2,36,0.00,CLR,,0.00,WeatherDisplay:10.37,2013-08-18 20:32:00,
2013-08-18 15:37:00,96.7,62.9,29.98,East,101,8.0,8.0,33,0.00,CLR,,0.00,WeatherDisplay:10.37,2013-08-18 20:37:00,
2013-08-18 15:42:00,96.6,61.9,29.98,NE,54,3.5,3.5,32,0.00,CLR,,0.00,WeatherDisplay:10.37,2013-08-18 20:42:00,
2013-08-18 15:47:00,96.5,62.7,29.98,ENE,70,2.3,2.3,33,0.00,CLR,,0.00,WeatherDisplay:10.37,2013-08-18 20:47:00,
2013-08-18 15:52:00,96.3,64.2,29.97,West,259,6.9,6.9,35,0.00,CLR,,0.00,WeatherDisplay:10.37,2013-08-18 20:52:00,
2013-08-18 15:57:00,96.4,63.5,29.97,East,86,2.3,2.3,34,0.00,CLR,,0.00,WeatherDisplay:10.37,2013-08-18 20:57:00,
2013-08-18 16:02:00,96.9,63.0,29.97,NE,39,3.5,3.5,33,0.00,CLR,,0.00,WeatherDisplay:10.37,2013-08-18 21:02:00,
2013-08-18 16:07:00,96.5,64.4,29.97,NE,44,3.5,3.5,35,0.00,CLR,,0.00,WeatherDisplay:10.37,2013-08-18 21:07:00,
2013-08-18 16:12:00,96.7,63.7,29.97,ESE,104,3.5,3.5,34,0.00,CLR,,0.00,WeatherDisplay:10.37,2013-08-18 21:12:00,
2013-08-18 16:17:00,96.4,62.6,29.97,NE,42,5.8,5.8,33,0.00,CLR,,0.00,WeatherDisplay:10.37,2013-08-18 21:17:00,
2013-08-18 16:22:00,96.1,63.2,29.96,West,261,2.3,2.3,34,0.00,CLR,,0.00,WeatherDisplay:10.37,2013-08-18 21:22:00,
2013-08-18 16:27:00,96.5,63.5,29.96,NNE,24,2.3,2.3,34,0.00,CLR,,0.00,WeatherDisplay:10.37,2013-08-18 21:27:00,
2013-08-18 16:33:00,96.8,63.8,29.96,NE,50,2.0,2.0,34,0.00,CLR,,0.00,WeatherDisplay:10.37,2013-08-18 21:33:00,
2013-08-18 16:38:00,96.4,63.5,29.96,NE,34,8.1,8.1,34,0.00,CLR,,0.00,WeatherDisplay:10.37,2013-08-18 21:38:00,
2013-08-18 16:43:00,96.5,64.4,29.96,ENE,62,5.0,5.0,35,0.00,CLR,,0.00,WeatherDisplay:10.37,2013-08-18 21:43:00,
2013-08-18 16:48:00,96.2,63.3,29.96,NNW,337,3.5,3.5,34,0.00,CLR,,0.00,WeatherDisplay:10.37,2013-08-18 21:48:00,
2013-08-18 16:53:00,96.4,63.5,29.95,NE,54,2.3,2.3,34,0.00,CLR,,0.00,WeatherDisplay:10.37,2013-08-18 21:53:00,
2013-08-18 16:58:00,96.7,63.7,29.95,ENE,63,5.8,5.8,34,0.00,CLR,,0.00,WeatherDisplay:10.37,2013-08-18 21:58:00,
2013-08-18 17:03:00,96.6,64.5,29.96,NE,53,3.5,3.5,35,0.00,CLR,,0.00,WeatherDisplay:10.37,2013-08-18 22:03:00,
2013-08-18 17:08:00,96.6,64.5,29.95,North,360,2.3,2.3,35,0.00,CLR,,0.00,WeatherDisplay:10.37,2013-08-18 22:08:00,
2013-08-18 17:13:00,96.7,63.7,29.95,ENE,67,2.3,2.3,34,0.00,CLR,,0.00,WeatherDisplay:10.37,2013-08-18 22:13:00,
2013-08-18 17:18:00,96.7,62.9,29.95,NW,326,1.2,1.2,33,0.00,CLR,,0.00,WeatherDisplay:10.37,2013-08-18 22:18:00,
2013-08-18 17:23:00,96.8,63.8,29.95,East,80,3.5,3.5,34,0.00,CLR,,0.00,WeatherDisplay:10.37,2013-08-18 22:23:00,
2013-08-18 17:28:00,96.2,64.1,29.95,East,82,8.1,8.1,35,0.00,CLR,,0.00,WeatherDisplay:10.37,2013-08-18 22:28:00,
2013-08-18 17:33:00,95.6,64.4,29.95,East,101,9.2,9.2,36,0.00,CLR,,0.00,WeatherDisplay:10.37,2013-08-18 22:33:00,
2013-08-18 17:39:00,95.8,62.9,29.94,ENE,70,3.5,3.5,34,0.00,CLR,,0.00,WeatherDisplay:10.37,2013-08-18 22:39:00,
2013-08-18 17:44:00,95.8,62.9,29.94,NE,55,6.9,6.9,34,0.00,CLR,,0.00,WeatherDisplay:10.37,2013-08-18 22:44:00,
2013-08-18 17:49:00,95.4,63.4,29.94,NE,38,2.3,2.3,35,0.00,CLR,,0.00,WeatherDisplay:10.37,2013-08-18 22:49:00,
2013-08-18 17:54:00,95.0,63.1,29.94,NE,47,3.5,3.5,35,0.00,CLR,,0.00,WeatherDisplay:10.37,2013-08-18 22:54:00,
2013-08-18 17:59:00,94.6,63.5,29.94,NW,304,1.2,1.2,36,0.00,CLR,,0.00,WeatherDisplay:10.37,2013-08-18 22:59:00,
2013-08-18 18:04:00,94.8,62.9,29.94,NE,44,1.2,1.2,35,0.00,CLR,,0.00,WeatherDisplay:10.37,2013-08-18 23:04:00,
2013-08-18 18:09:00,94.6,62.7,29.94,NE,51,0.0,0.0,35,0.00,CLR,,0.00,WeatherDisplay:10.37,2013-08-18 23:09:00,
2013-08-18 18:14:00,94.0,63.0,29.94,NE,48,1.2,1.2,36,0.00,CLR,,0.00,WeatherDisplay:10.37,2013-08-18 23:14:00,
2013-08-18 18:19:00,93.4,63.2,29.94,SE,134,1.2,1.2,37,0.00,CLR,,0.00,WeatherDisplay:10.37,2013-08-18 23:19:00,
2013-08-18 18:24:00,93.2,63.1,29.94,East,85,2.3,2.3,37,0.00,CLR,,0.00,WeatherDisplay:10.37,2013-08-18 23:24:00,
2013-08-18 18:29:00,93.0,62.1,29.94,NE,49,3.5,3.5,36,0.00,CLR,,0.00,WeatherDisplay:10.37,2013-08-18 23:29:00,
2013-08-18 18:34:00,92.8,61.9,29.94,ENE,57,1.2,1.2,36,0.00,CLR,,0.00,WeatherDisplay:10.37,2013-08-18 23:34:00,
2013-08-18 18:40:00,92.6,62.5,29.94,ENE,77,1.2,1.2,37,0.00,CLR,,0.00,WeatherDisplay:10.37,2013-08-18 23:40:00,
2013-08-18 18:45:00,92.4,62.4,29.94,ENE,76,0.0,0.0,37,0.00,CLR,,0.00,WeatherDisplay:10.37,2013-08-18 23:45:00,
2013-08-18 18:50:00,92.2,62.2,29.94,ENE,70,3.5,3.5,37,0.00,CLR,,0.00,WeatherDisplay:10.37,2013-08-18 23:50:00,
2013-08-18 18:55:00,92.0,62.0,29.94,ENE,66,0.0,0.1,37,0.00,CLR,,0.00,WeatherDisplay:10.37,2013-08-18 23:55:00,
2013-08-18 19:00:00,91.8,61.8,29.94,ENE,58,0.0,0.6,37,0.00,CLR,,0.00,WeatherDisplay:10.37,2013-08-19 00:00:00,
2013-08-18 19:05:00,91.5,61.6,29.94,ENE,65,2.3,2.3,37,0.00,CLR,,0.00,WeatherDisplay:10.37,2013-08-19 00:05:00,
2013-08-18 19:10:00,91.3,61.4,29.94,ESE,109,1.2,1.2,37,0.00,CLR,,0.00,WeatherDisplay:10.37,2013-08-19 00:10:00,
2013-08-18 19:15:00,91.1,61.2,29.94,East,81,2.3,0.0,37,0.00,CLR,,0.00,WeatherDisplay:10.37,2013-08-19 00:15:00,
2013-08-18 19:21:00,91.1,61.2,29.94,East,80,0.0,0.0,37,0.00,CLR,,0.00,WeatherDisplay:10.37,2013-08-19 00:21:00,
2013-08-18 19:26:00,91.0,61.1,29.94,ESE,103,1.2,1.2,37,0.00,CLR,,0.00,WeatherDisplay:10.37,2013-08-19 00:26:00,
2013-08-18 19:31:00,90.9,62.5,29.94,NE,43,0.0,0.0,39,0.00,CLR,,0.00,WeatherDisplay:10.37,2013-08-19 00:31:00,
2013-08-18 19:36:00,90.5,62.2,29.94,NE,43,0.0,0.0,39,0.00,CLR,,0.00,WeatherDisplay:10.37,2013-08-19 00:36:00,
2013-08-18 19:41:00,90.0,62.4,29.94,NE,43,0.0,0.0,40,0.00,CLR,,0.00,WeatherDisplay:10.37,2013-08-19 00:41:00,
2013-08-18 19:46:00,89.4,61.2,29.94,NE,44,0.0,0.2,39,0.00,CLR,,0.00,WeatherDisplay:10.37,2013-08-19 00:46:00,
2013-08-18 19:51:00,89.1,60.9,29.94,NE,49,0.0,0.1,39,0.00,CLR,,0.00,WeatherDisplay:10.37,2013-08-19 00:51:00,
2013-08-18 19:56:00,88.9,60.7,29.94,ENE,59,1.2,0.0,39,0.00,CLR,,0.00,WeatherDisplay:10.37,2013-08-19 00:56:00,
2013-08-18 20:01:00,88.6,60.5,29.94,ENE,59,1.2,0.0,39,0.00,CLR,,0.00,WeatherDisplay:10.37,2013-08-19 01:01:00,
2013-08-18 20:06:00,88.2,60.1,29.94,ENE,59,0.0,0.0,39,0.00,CLR,,0.00,WeatherDisplay:10.37,2013-08-19 01:06:00,
2013-08-18 20:11:00,87.7,60.4,29.94,ENE,59,0.0,0.0,40,0.00,CLR,,0.00,WeatherDisplay:10.37,2013-08-19 01:11:00,
2013-08-18 20:17:00,87.4,60.1,29.94,ENE,59,0.0,0.0,40,0.00,CLR,,0.00,WeatherDisplay:10.37,2013-08-19 01:17:00,
2013-08-18 20:22:00,86.9,60.4,29.94,ENE,59,0.0,0.0,41,0.00,CLR,,0.00,WeatherDisplay:10.37,2013-08-19 01:22:00,
2013-08-18 20:28:00,86.4,59.9,29.94,ENE,59,0.0,0.0,41,0.00,CLR,,0.00,WeatherDisplay:10.37,2013-08-19 01:28:00,
2013-08-18 20:33:00,85.7,60.6,29.94,ENE,59,0.0,0.0,43,0.00,CLR,,0.00,WeatherDisplay:10.37,2013-08-19 01:33:00,
2013-08-18 20:38:00,85.1,60.1,29.94,ENE,59,0.0,0.0,43,0.00,CLR,,0.00,WeatherDisplay:10.37,2013-08-19 01:38:00,
2013-08-18 20:43:00,84.6,60.3,29.94,ENE,59,0.0,0.0,44,0.00,CLR,,0.00,WeatherDisplay:10.37,2013-08-19 01:43:00,
2013-08-18 20:48:00,84.2,59.9,29.94,ENE,59,0.0,0.0,44,0.00,CLR,,0.00,WeatherDisplay:10.37,2013-08-19 01:48:00,
2013-08-18 20:53:00,83.7,60.1,29.94,ENE,59,0.0,0.0,45,0.00,CLR,,0.00,WeatherDisplay:10.37,2013-08-19 01:53:00,
2013-08-18 20:58:00,83.2,60.3,29.95,ENE,59,0.0,0.0,46,0.00,CLR,,0.00,WeatherDisplay:10.37,2013-08-19 01:58:00,
2013-08-18 21:03:00,83.2,60.3,29.95,ENE,59,0.0,0.0,46,0.00,CLR,,0.00,WeatherDisplay:10.37,2013-08-19 02:03:00,
2013-08-18 21:08:00,83.0,60.7,29.95,ENE,59,0.0,0.0,47,0.00,CLR,,0.00,WeatherDisplay:10.37,2013-08-19 02:08:00,
2013-08-18 21:13:00,82.7,60.4,29.95,ENE,59,0.0,0.0,47,0.00,CLR,,0.00,WeatherDisplay:10.37,2013-08-19 02:13:00,
2013-08-18 21:18:00,82.3,60.1,29.95,ENE,59,0.0,0.0,47,0.00,CLR,,0.00,WeatherDisplay:10.37,2013-08-19 02:18:00,
2013-08-18 21:23:00,82.1,59.9,29.95,ENE,59,0.0,0.0,47,0.00,CLR,,0.00,WeatherDisplay:10.37,2013-08-19 02:23:00,
2013-08-18 21:28:00,82.1,60.5,29.95,ENE,59,0.0,0.0,48,0.00,CLR,,0.00,WeatherDisplay:10.37,2013-08-19 02:28:00,
2013-08-18 21:33:00,82.0,60.4,29.96,ENE,59,0.0,0.0,48,0.00,CLR,,0.00,WeatherDisplay:10.37,2013-08-19 02:33:00,
2013-08-18 21:38:00,81.7,60.1,29.95,ENE,59,0.0,0.0,48,0.00,CLR,,0.00,WeatherDisplay:10.37,2013-08-19 02:38:00,
2013-08-18 21:43:00,81.6,60.0,29.95,ENE,59,0.0,0.0,48,0.00,CLR,,0.00,WeatherDisplay:10.37,2013-08-19 02:43:00,
2013-08-18 21:48:00,81.7,60.7,29.96,ENE,59,0.0,0.0,49,0.00,CLR,,0.00,WeatherDisplay:10.37,2013-08-19 02:48:00,
2013-08-18 21:53:00,81.6,60.0,29.96,ENE,59,0.0,0.0,48,0.00,CLR,,0.00,WeatherDisplay:10.37,2013-08-19 02:53:00,
2013-08-18 21:58:00,81.5,59.9,29.96,ENE,59,1.0,1.0,48,0.00,CLR,,0.00,WeatherDisplay:10.37,2013-08-19 02:58:00,
2013-08-18 22:03:00,81.5,60.5,29.96,ENE,59,0.0,0.0,49,0.00,CLR,,0.00,WeatherDisplay:10.37,2013-08-19 03:03:00,
2013-08-18 22:08:00,81.4,59.8,29.96,ENE,59,0.0,0.0,48,0.00,CLR,,0.00,WeatherDisplay:10.37,2013-08-19 03:08:00,
2013-08-18 22:13:00,81.5,59.9,29.97,ENE,59,0.0,0.0,48,0.00,CLR,,0.00,WeatherDisplay:10.37,2013-08-19 03:13:00,
2013-08-18 22:18:00,81.4,59.8,29.97,ENE,59,0.0,0.0,48,0.00,CLR,,0.00,WeatherDisplay:10.37,2013-08-19 03:18:00,
2013-08-18 22:23:00,81.2,60.2,29.97,NNW,341,0.0,0.2,49,0.00,CLR,,0.00,WeatherDisplay:10.37,2013-08-19 03:23:00,
2013-08-18 22:28:00,81.7,60.7,29.97,East,88,8.1,8.1,49,0.00,CLR,,0.00,WeatherDisplay:10.37,2013-08-19 03:28:00,
2013-08-18 22:33:00,82.0,61.0,29.98,East,86,6.9,6.9,49,0.00,CLR,,0.00,WeatherDisplay:10.37,2013-08-19 03:33:00,
2013-08-18 22:38:00,81.8,61.3,29.98,East,98,2.3,2.3,50,0.00,CLR,,0.00,WeatherDisplay:10.37,2013-08-19 03:38:00,
2013-08-18 22:43:00,81.8,61.9,29.97,East,101,5.0,5.0,51,0.00,CLR,,0.00,WeatherDisplay:10.37,2013-08-19 03:43:00,
2013-08-18 22:48:00,81.8,62.5,29.98,ESE,117,2.3,2.3,52,0.00,CLR,,0.00,WeatherDisplay:10.37,2013-08-19 03:48:00,
2013-08-18 22:53:00,81.8,63.0,29.98,ESE,107,2.3,2.3,53,0.00,CLR,,0.00,WeatherDisplay:10.37,2013-08-19 03:53:00,
2013-08-18 22:58:00,81.6,63.3,29.98,ESE,121,1.2,1.2,54,0.00,CLR,,0.00,WeatherDisplay:10.37,2013-08-19 03:58:00,
2013-08-18 23:01:00,81.5,63.3,29.98,ESE,121,0.0,0.0,54,0.00,CLR,,0.00,WeatherDisplay:10.37,2013-08-19 04:01:00,
2013-08-18 23:02:00,81.4,63.2,29.98,ESE,121,0.0,0.0,54,0.00,CLR,,0.00,WeatherDisplay:10.37,2013-08-19 04:02:00,
2013-08-18 23:07:00,81.1,63.4,29.98,ESE,115,1.2,1.2,55,0.00,CLR,,0.00,WeatherDisplay:10.37,2013-08-19 04:07:00,
2013-08-18 23:12:00,80.8,63.6,29.98,ESE,115,0.0,0.0,56,0.00,CLR,,0.00,WeatherDisplay:10.37,2013-08-19 04:12:00,
2013-08-18 23:17:00,80.2,63.6,29.98,ESE,115,0.0,0.0,57,0.00,CLR,,0.00,WeatherDisplay:10.37,2013-08-19 04:17:00,
2013-08-18 23:22:00,79.5,63.4,29.98,ESE,116,0.0,0.0,58,0.00,CLR,,0.00,WeatherDisplay:10.37,2013-08-19 04:22:00,
2013-08-18 23:27:00,79.0,63.4,29.99,ESE,116,0.0,0.0,59,0.00,CLR,,0.00,WeatherDisplay:10.37,2013-08-19 04:27:00,
2013-08-18 23:32:00,78.7,64.1,29.98,ESE,115,0.0,0.0,61,0.00,CLR,,0.00,WeatherDisplay:10.37,2013-08-19 04:32:00,
2013-08-18 23:37:00,79.1,64.5,29.99,ESE,115,0.0,0.0,61,0.00,CLR,,0.00,WeatherDisplay:10.37,2013-08-19 04:37:00,
2013-08-18 23:42:00,79.2,64.1,29.99,ESE,115,0.0,0.0,60,0.00,CLR,,0.00,WeatherDisplay:10.37,2013-08-19 04:42:00,
2013-08-18 23:47:00,79.5,64.4,29.99,ESE,119,0.0,0.0,60,0.00,CLR,,0.00,WeatherDisplay:10.37,2013-08-19 04:47:00,
2013-08-18 23:52:00,79.4,64.3,29.98,ESE,119,1.2,1.2,60,0.00,CLR,,0.00,WeatherDisplay:10.37,2013-08-19 04:52:00,
2013-08-18 23:57:00,79.3,64.2,29.99,ESE,119,0.0,0.0,60,0.00,CLR,,0.00,WeatherDisplay:10.37,2013-08-19 04:57:00,